EEPU

Pärnu Airport

Pärnu, Estonia
METAR EEPU 151350Z 07005KT 030V110 8000 OVC010 M02/M04 Q1036
Observed Flight Rules
Dec-15 @ 13:50 UTC (16 hours ago) Marginal Visual Flight Rules
Wind Visibility Clouds
70° at 5 knots 7,998 meters
  • Overcast at 1,000' AGL
Temperatures Readings
Current -2°C / 28°F
Dewpoint -4°C / 25°F
Humidity 86%
Altimeter 30.59" Hg
Pressure 1036 hPa
Elevation 14
METAR EEPU 151350Z 07005KT 030V110 8000 OVC010 M02/M04 Q1036
Observed Flight Rules
Dec-15 @ 13:50 UTC
(16 hours ago)
MVFR
Wind Visibility
70° at 5 knots 7,998 meters
Clouds
  • Overcast at 1,000' AGL
Temperature Dewpoint
-2°C / 28°F -4°C / 25°F
Humidity Altimeter Pressure
86% 30.59" Hg 1036 hPa